Time;durP1;ratioP1;P1;durP2;ratioP2;P2;SDS_P1;SDS_P2;PMS_P1;PMS_P2;Temp;Humidity;BMP_temperature;BMP_pressure;BME280_temperature;BME280_humidity;BME280_pressure;Samples;Min_cycle;Max_cycle;Signal;HPM_P1;HPM_P2
2024/01/06 09:37:08;;;;;;;2.70;1.37;;;6.80;99.90;;;;;;4894567;23;20258;-75
2024/01/06 09:39:35;;;;;;;5.23;2.40;;;6.80;99.90;;;;;;4866687;29;20235;-72
2024/01/06 09:42:02;;;;;;;7.13;2.70;;;6.70;99.90;;;;;;4880704;29;20262;-70
2024/01/06 09:44:30;;;;;;;3.67;1.70;;;6.70;99.90;;;;;;4879800;29;20211;-69
2024/01/06 09:47:00;;;;;;;4.17;1.83;;;6.70;99.90;;;;;;4879459;29;20271;-70
2024/01/06 09:49:45;;;;;;;4.43;2.37;;;6.60;99.90;;;;;;4880799;29;20718;-72
2024/01/06 09:52:19;;;;;;;3.13;1.77;;;6.70;99.90;;;;;;4880595;29;20246;-72
2024/01/06 09:54:59;;;;;;;3.63;1.47;;;6.80;99.90;;;;;;4879477;29;20267;-74
2024/01/06 09:57:31;;;;;;;1.60;0.90;;;6.80;99.90;;;;;;4879899;29;20225;-73
2024/01/06 10:00:09;;;;;;;1.87;1.00;;;6.80;99.90;;;;;;4879975;29;20242;-72
2024/01/06 10:02:36;;;;;;;2.70;0.80;;;6.80;99.90;;;;;;4880023;29;20221;-72
2024/01/06 10:05:15;;;;;;;1.83;1.00;;;6.70;99.90;;;;;;4880118;29;20239;-71
2024/01/06 10:07:45;;;;;;;2.07;1.20;;;6.70;99.90;;;;;;4879963;29;20218;-77
2024/01/06 10:10:13;;;;;;;1.87;1.07;;;6.60;99.90;;;;;;4879408;29;20275;-70
2024/01/06 10:12:40;;;;;;;2.30;1.23;;;6.50;99.90;;;;;;4877696;29;20215;-72
2024/01/06 10:15:09;;;;;;;2.33;1.27;;;6.50;99.90;;;;;;4880364;29;20241;-68
2024/01/06 10:17:39;;;;;;;2.50;1.10;;;6.50;99.90;;;;;;4880309;29;20218;-77
2024/01/06 10:20:15;;;;;;;2.70;1.37;;;6.50;99.90;;;;;;4877651;29;20314;-78
2024/01/06 10:22:44;;;;;;;2.83;1.10;;;6.50;99.90;;;;;;4877537;29;20293;-69
2024/01/06 10:25:28;;;;;;;3.57;1.00;;;6.40;99.90;;;;;;4877683;29;20207;-78
2024/01/06 10:27:55;;;;;;;1.80;1.17;;;6.40;99.90;;;;;;4859429;29;20582;-71
2024/01/06 10:30:44;;;;;;;3.33;1.40;;;6.50;99.90;;;;;;4873290;29;20239;-76
2024/01/06 10:33:39;;;;;;;1.80;1.10;;;6.60;99.90;;;;;;4877708;29;20217;-79
2024/01/06 10:36:09;;;;;;;4.93;1.53;;;6.50;99.90;;;;;;4877404;29;20211;-75
2024/01/06 10:38:42;;;;;;;2.07;1.00;;;6.50;99.90;;;;;;4877462;29;20226;-78
2024/01/06 10:41:12;;;;;;;2.07;1.00;;;6.30;99.90;;;;;;4880639;29;20233;-72
2024/01/06 10:43:56;;;;;;;2.40;1.37;;;6.10;99.90;;;;;;4880535;29;20275;-73
2024/01/06 10:46:48;;;;;;;3.37;1.60;;;6.10;99.90;;;;;;4880946;29;20218;-75
2024/01/06 10:49:16;;;;;;;2.60;1.23;;;6.10;99.90;;;;;;4880058;29;20631;-82
2024/01/06 10:51:45;;;;;;;3.30;1.53;;;6.10;99.90;;;;;;4882135;29;20277;-78
2024/01/06 10:54:15;;;;;;;3.33;2.13;;;6.10;99.90;;;;;;4880539;29;20211;-78
2024/01/06 10:56:43;;;;;;;2.73;1.40;;;6.20;99.90;;;;;;4884973;29;20258;-79
2024/01/06 10:59:13;;;;;;;3.70;1.87;;;6.30;99.90;;;;;;4880653;29;20211;-78
2024/01/06 11:01:40;;;;;;;1.67;1.27;;;6.40;99.90;;;;;;4880457;29;20215;-74
2024/01/06 11:04:09;;;;;;;2.70;1.30;;;6.40;99.90;;;;;;4880751;29;20251;-76
2024/01/06 11:06:37;;;;;;;2.27;1.30;;;6.40;99.90;;;;;;4880690;29;20215;-77
2024/01/06 11:09:11;;;;;;;2.77;1.10;;;6.50;99.90;;;;;;4880495;29;20398;-75
2024/01/06 11:11:40;;;;;;;2.33;1.17;;;6.50;99.90;;;;;;4879550;29;20337;-74
2024/01/06 11:14:22;;;;;;;2.20;1.17;;;6.50;99.90;;;;;;4879736;29;20603;-75
2024/01/06 11:16:50;;;;;;;2.47;1.47;;;6.40;99.90;;;;;;4880068;29;20211;-76
2024/01/06 11:19:47;;;;;;;2.83;1.50;;;6.50;99.90;;;;;;4880212;29;20298;-79
2024/01/06 11:22:31;;;;;;;2.07;1.00;;;6.50;99.90;;;;;;4877463;29;20212;-76
2024/01/06 11:25:05;;;;;;;2.20;1.33;;;6.40;99.90;;;;;;4881871;29;20218;-75
2024/01/06 11:27:35;;;;;;;2.10;1.00;;;6.50;99.90;;;;;;4880460;29;20543;-76
2024/01/06 11:30:05;;;;;;;1.97;1.10;;;6.60;99.90;;;;;;4880888;29;20238;-77
2024/01/06 11:32:35;;;;;;;1.40;0.80;;;6.60;99.90;;;;;;4898126;29;20217;-79
2024/01/06 11:35:08;;;;;;;3.43;1.70;;;6.50;99.90;;;;;;4880234;29;20210;-77
2024/01/06 11:37:38;;;;;;;1.90;1.13;;;6.40;99.90;;;;;;4882553;29;20219;-78
2024/01/06 11:40:09;;;;;;;5.07;1.30;;;6.30;99.90;;;;;;4867568;29;20240;-80
2024/01/06 11:42:38;;;;;;;2.80;1.17;;;6.10;99.90;;;;;;4892937;29;20226;-77
2024/01/06 11:45:06;;;;;;;2.63;1.30;;;6.10;99.90;;;;;;4900834;29;20252;-80
2024/01/06 11:47:34;;;;;;;2.97;1.37;;;6.10;99.90;;;;;;4920526;29;20211;-78
2024/01/06 11:50:04;;;;;;;3.20;1.20;;;6.10;99.90;;;;;;4894301;29;20800;-77
2024/01/06 11:52:32;;;;;;;3.17;1.47;;;6.10;99.90;;;;;;4861876;29;20751;-78
2024/01/06 11:55:02;;;;;;;4.23;1.53;;;6.00;99.90;;;;;;4881035;29;20305;-74
2024/01/06 11:57:37;;;;;;;3.80;1.67;;;6.10;99.90;;;;;;4882737;29;20582;-76
2024/01/06 12:00:05;;;;;;;3.50;1.37;;;6.10;99.90;;;;;;4886222;29;20241;-76
2024/01/06 12:02:32;;;;;;;4.57;1.93;;;6.00;99.90;;;;;;4886745;29;20213;-73
2024/01/06 12:05:00;;;;;;;3.03;1.30;;;5.90;99.90;;;;;;4886913;29;20227;-70
2024/01/06 12:07:27;;;;;;;2.87;1.27;;;5.90;99.90;;;;;;4893853;29;20278;-70
2024/01/06 12:10:03;;;;;;;5.13;1.70;;;5.90;99.90;;;;;;4895269;29;20238;-70
2024/01/06 12:12:31;;;;;;;2.23;1.20;;;5.90;99.90;;;;;;4894189;29;20242;-70
2024/01/06 12:15:01;;;;;;;2.50;1.40;;;5.90;99.90;;;;;;4891421;29;20290;-71
2024/01/06 12:17:31;;;;;;;5.73;2.00;;;5.80;99.90;;;;;;4887274;29;20240;-69
2024/01/06 12:19:59;;;;;;;5.20;2.07;;;5.80;99.90;;;;;;4882417;29;20250;-72
2024/01/06 12:22:27;;;;;;;3.10;1.70;;;5.80;99.90;;;;;;4881140;29;20222;-70
2024/01/06 12:24:54;;;;;;;3.13;1.60;;;5.80;99.90;;;;;;4880755;29;20214;-71
2024/01/06 12:27:22;;;;;;;3.07;1.37;;;5.80;99.90;;;;;;4881121;29;20239;-70
2024/01/06 12:29:49;;;;;;;3.43;1.50;;;5.80;99.90;;;;;;4881090;29;20239;-71
2024/01/06 12:32:19;;;;;;;3.67;1.63;;;5.90;99.90;;;;;;4880887;29;20258;-71
2024/01/06 12:34:47;;;;;;;3.73;1.70;;;5.90;99.90;;;;;;4881269;29;20215;-71
2024/01/06 12:37:15;;;;;;;4.07;1.60;;;6.00;99.90;;;;;;4880832;29;20230;-71
2024/01/06 12:39:45;;;;;;;2.87;1.30;;;6.10;99.90;;;;;;4881047;29;20241;-70
2024/01/06 12:42:16;;;;;;;4.47;2.17;;;6.20;99.90;;;;;;4881032;29;20221;-70
2024/01/06 12:44:43;;;;;;;3.93;1.87;;;6.20;99.90;;;;;;4881043;29;20215;-70
2024/01/06 12:47:12;;;;;;;3.13;1.70;;;6.20;99.90;;;;;;4881217;29;20221;-70
2024/01/06 12:49:40;;;;;;;3.83;2.07;;;6.30;99.90;;;;;;4880708;29;20251;-70
2024/01/06 12:52:08;;;;;;;3.77;1.63;;;6.40;99.90;;;;;;4880748;29;20286;-73
2024/01/06 12:54:35;;;;;;;2.53;1.43;;;6.40;99.90;;;;;;4880801;29;20226;-70
2024/01/06 12:57:02;;;;;;;3.67;1.70;;;6.40;99.90;;;;;;4880728;29;20218;-74
2024/01/06 12:59:31;;;;;;;4.63;2.13;;;6.40;99.90;;;;;;4880398;29;20239;-71
2024/01/06 13:01:58;;;;;;;5.17;2.07;;;6.40;99.90;;;;;;4879930;29;20215;-72
2024/01/06 13:04:25;;;;;;;5.50;2.50;;;6.40;99.90;;;;;;4880768;29;20215;-74
2024/01/06 13:06:54;;;;;;;5.37;2.10;;;6.30;99.90;;;;;;4880589;29;20638;-72
2024/01/06 13:09:23;;;;;;;4.40;2.27;;;6.40;99.90;;;;;;4880350;29;20253;-74
2024/01/06 13:11:51;;;;;;;5.33;2.20;;;6.30;99.90;;;;;;4880208;29;20279;-76
2024/01/06 13:14:18;;;;;;;4.00;2.27;;;6.40;99.90;;;;;;4880078;29;20219;-72
2024/01/06 13:16:45;;;;;;;5.13;1.97;;;6.40;99.90;;;;;;4880457;29;20263;-71
2024/01/06 13:19:13;;;;;;;3.23;1.87;;;6.40;99.90;;;;;;4880303;29;20310;-71
2024/01/06 13:21:40;;;;;;;4.00;1.80;;;6.40;99.90;;;;;;4880103;29;20250;-72
2024/01/06 13:24:10;;;;;;;4.70;2.00;;;6.30;99.90;;;;;;4880288;29;20301;-72
2024/01/06 13:26:37;;;;;;;5.40;2.33;;;6.30;99.90;;;;;;4879184;29;20298;-74
2024/01/06 13:29:04;;;;;;;4.60;2.17;;;6.20;99.90;;;;;;4880320;29;20226;-75
2024/01/06 13:31:32;;;;;;;3.77;1.67;;;6.30;99.90;;;;;;4878940;29;20231;-74
2024/01/06 13:33:59;;;;;;;4.30;1.20;;;6.30;99.90;;;;;;4880539;29;20235;-77
2024/01/06 13:36:27;;;;;;;3.87;1.70;;;6.30;99.90;;;;;;4879959;29;20231;-80
2024/01/06 13:38:55;;;;;;;2.67;1.60;;;6.20;99.90;;;;;;4884230;29;20248;-80
2024/01/06 13:41:24;;;;;;;3.00;1.30;;;6.20;99.90;;;;;;4881853;29;20293;-76
2024/01/06 13:43:51;;;;;;;2.80;1.40;;;6.10;99.90;;;;;;4881529;29;20229;-75
2024/01/06 13:46:19;;;;;;;2.33;1.47;;;6.10;99.90;;;;;;4893769;29;20241;-80
2024/01/06 13:48:46;;;;;;;2.40;1.60;;;6.20;99.90;;;;;;4901074;29;20651;-76
2024/01/06 13:51:14;;;;;;;2.40;1.50;;;6.30;99.90;;;;;;4900268;29;20244;-77
2024/01/06 13:53:41;;;;;;;2.97;1.63;;;6.20;99.90;;;;;;4901907;29;20301;-75
2024/01/06 13:56:09;;;;;;;4.90;3.03;;;6.30;99.90;;;;;;4890042;29;20215;-78
2024/01/06 13:58:38;;;;;;;3.07;1.30;;;6.30;99.90;;;;;;4882433;29;20218;-75
2024/01/06 14:01:06;;;;;;;2.43;1.23;;;6.30;99.90;;;;;;4881498;29;20231;-76
2024/01/06 14:03:33;;;;;;;4.97;1.27;;;6.10;99.90;;;;;;4879692;29;20665;-75
2024/01/06 14:06:01;;;;;;;2.63;1.20;;;6.10;99.90;;;;;;4879869;29;20222;-74
2024/01/06 14:08:28;;;;;;;1.67;1.20;;;6.10;99.90;;;;;;4881464;29;20234;-78
2024/01/06 14:10:55;;;;;;;4.40;1.70;;;6.10;99.90;;;;;;4880042;29;20310;-78
2024/01/06 14:13:22;;;;;;;3.47;1.47;;;6.10;99.90;;;;;;4880610;29;20207;-79
2024/01/06 14:15:51;;;;;;;3.27;1.40;;;6.10;99.90;;;;;;4880866;29;20269;-78
2024/01/06 14:18:21;;;;;;;2.47;1.33;;;6.00;99.90;;;;;;4881099;29;20218;-80
2024/01/06 14:20:49;;;;;;;2.17;1.20;;;6.10;99.90;;;;;;4886926;29;20258;-77
2024/01/06 14:23:16;;;;;;;1.70;1.10;;;6.10;99.90;;;;;;4883938;29;20219;-77
2024/01/06 14:25:44;;;;;;;4.90;1.30;;;6.00;99.90;;;;;;4880637;29;20702;-79
2024/01/06 14:28:11;;;;;;;2.47;1.10;;;6.10;99.90;;;;;;4882715;29;20218;-76
2024/01/06 14:30:41;;;;;;;2.57;1.13;;;6.10;99.90;;;;;;4881697;29;20231;-80
2024/01/06 14:33:10;;;;;;;2.53;1.47;;;6.20;99.90;;;;;;4881387;29;20293;-76
2024/01/06 14:35:42;;;;;;;5.33;1.60;;;6.20;99.90;;;;;;4882293;29;20234;-76
2024/01/06 14:38:12;;;;;;;1.70;1.20;;;6.30;99.90;;;;;;4880982;29;20222;-73
2024/01/06 14:40:42;;;;;;;1.67;0.90;;;6.30;99.90;;;;;;4881389;29;20265;-72
2024/01/06 14:43:10;;;;;;;2.10;1.13;;;6.30;99.90;;;;;;4881162;29;20264;-71
2024/01/06 14:45:38;;;;;;;1.87;1.23;;;6.40;99.90;;;;;;4880178;29;20208;-73
